Moscow, Russia
Current Conditions -  °F | °C
As of 11:30 PM on Friday 31 Oct 2014 (Local Time) from UUWW Reporting Station
Broken Clouds Broken Clouds  
Wind Chill: -2°   Ceiling: 3600
Heat Index:   Visibility: 4mi
Dew Point: -2°   Wind: 7mph
Humidity: 81%   Direction: 270°W
Pressure: 30.09"   Gusts: NA
Location:  55.75°N, 37.62°E
Report Text: UUWW 312030Z 27003MPS 7000 BKN036 01/M02 Q1019 24000070 NOSIG
Loading
Personal Weather Stations






























Interactive Weather Map
Tropical Storm Tracking
New forecast layout! Learn more

10-Day Weather Forecast

Advertisements
Track Severe Weather on mobile